sensor_id;sensor_type;location;lat;lon;timestamp;P1;durP1;ratioP1;P2;durP2;ratioP2
15667;SDS011;7934;48.710;9.024;2023-03-20T00:00:24;0.52;;;0.52;;
15667;SDS011;7934;48.710;9.024;2023-03-20T00:02:51;0.93;;;0.82;;
15667;SDS011;7934;48.710;9.024;2023-03-20T00:05:19;0.30;;;0.30;;
15667;SDS011;7934;48.710;9.024;2023-03-20T00:07:46;0.80;;;0.80;;
15667;SDS011;7934;48.710;9.024;2023-03-20T00:10:16;1.65;;;1.20;;
15667;SDS011;7934;48.710;9.024;2023-03-20T00:12:44;0.70;;;0.70;;
15667;SDS011;7934;48.710;9.024;2023-03-20T00:15:18;0.77;;;0.67;;
15667;SDS011;7934;48.710;9.024;2023-03-20T00:17:48;0.63;;;0.60;;
15667;SDS011;7934;48.710;9.024;2023-03-20T00:20:15;0.90;;;0.90;;
15667;SDS011;7934;48.710;9.024;2023-03-20T00:22:43;0.52;;;0.52;;
15667;SDS011;7934;48.710;9.024;2023-03-20T00:25:11;0.52;;;0.52;;
15667;SDS011;7934;48.710;9.024;2023-03-20T00:27:41;0.90;;;0.40;;
15667;SDS011;7934;48.710;9.024;2023-03-20T00:30:14;0.43;;;0.43;;
15667;SDS011;7934;48.710;9.024;2023-03-20T00:32:42;0.30;;;0.30;;
15667;SDS011;7934;48.710;9.024;2023-03-20T00:35:14;1.50;;;1.00;;
15667;SDS011;7934;48.710;9.024;2023-03-20T00:37:42;0.40;;;0.40;;
15667;SDS011;7934;48.710;9.024;2023-03-20T00:40:10;0.70;;;0.70;;
15667;SDS011;7934;48.710;9.024;2023-03-20T00:42:37;0.50;;;0.50;;
15667;SDS011;7934;48.710;9.024;2023-03-20T00:45:07;0.30;;;0.30;;
15667;SDS011;7934;48.710;9.024;2023-03-20T00:47:36;0.63;;;0.63;;
15667;SDS011;7934;48.710;9.024;2023-03-20T00:50:05;0.70;;;0.70;;
15667;SDS011;7934;48.710;9.024;2023-03-20T00:52:33;0.40;;;0.40;;
15667;SDS011;7934;48.710;9.024;2023-03-20T00:55:00;0.20;;;0.10;;
15667;SDS011;7934;48.710;9.024;2023-03-20T00:57:28;0.30;;;0.30;;
15667;SDS011;7934;48.710;9.024;2023-03-20T00:59:57;0.57;;;0.57;;
15667;SDS011;7934;48.710;9.024;2023-03-20T01:02:27;0.22;;;0.22;;
15667;SDS011;7934;48.710;9.024;2023-03-20T01:04:55;1.00;;;0.30;;
15667;SDS011;7934;48.710;9.024;2023-03-20T01:07:22;0.10;;;0.10;;
15667;SDS011;7934;48.710;9.024;2023-03-20T01:09:49;0.70;;;0.20;;
15667;SDS011;7934;48.710;9.024;2023-03-20T01:12:17;0.10;;;0.10;;
15667;SDS011;7934;48.710;9.024;2023-03-20T01:14:44;0.10;;;0.10;;
15667;SDS011;7934;48.710;9.024;2023-03-20T01:17:16;0.13;;;0.13;;
15667;SDS011;7934;48.710;9.024;2023-03-20T01:19:45;0.60;;;0.60;;
15667;SDS011;7934;48.710;9.024;2023-03-20T01:22:12;0.10;;;0.10;;
15667;SDS011;7934;48.710;9.024;2023-03-20T01:24:41;0.10;;;0.10;;
15667;SDS011;7934;48.710;9.024;2023-03-20T01:27:10;0.10;;;0.10;;
15667;SDS011;7934;48.710;9.024;2023-03-20T01:29:38;0.20;;;0.20;;
15667;SDS011;7934;48.710;9.024;2023-03-20T01:32:07;0.10;;;0.10;;
15667;SDS011;7934;48.710;9.024;2023-03-20T01:34:35;0.10;;;0.10;;
15667;SDS011;7934;48.710;9.024;2023-03-20T01:37:05;0.10;;;0.10;;
15667;SDS011;7934;48.710;9.024;2023-03-20T01:39:35;0.03;;;0.03;;
15667;SDS011;7934;48.710;9.024;2023-03-20T01:42:05;0.20;;;0.20;;
15667;SDS011;7934;48.710;9.024;2023-03-20T01:44:33;0.00;;;0.00;;
15667;SDS011;7934;48.710;9.024;2023-03-20T01:47:00;0.10;;;0.10;;
15667;SDS011;7934;48.710;9.024;2023-03-20T01:52:15;0.13;;;0.13;;
15667;SDS011;7934;48.710;9.024;2023-03-20T01:54:43;0.00;;;0.00;;
15667;SDS011;7934;48.710;9.024;2023-03-20T01:57:11;6.30;;;0.30;;
15667;SDS011;7934;48.710;9.024;2023-03-20T01:59:41;0.50;;;0.28;;
15667;SDS011;7934;48.710;9.024;2023-03-20T02:02:10;0.00;;;0.00;;
15667;SDS011;7934;48.710;9.024;2023-03-20T02:04:40;0.00;;;0.00;;
15667;SDS011;7934;48.710;9.024;2023-03-20T02:07:08;0.00;;;0.00;;
15667;SDS011;7934;48.710;9.024;2023-03-20T02:09:38;0.00;;;0.00;;
15667;SDS011;7934;48.710;9.024;2023-03-20T02:12:05;0.00;;;0.00;;
15667;SDS011;7934;48.710;9.024;2023-03-20T02:14:32;0.00;;;0.00;;
15667;SDS011;7934;48.710;9.024;2023-03-20T02:16:59;0.00;;;0.00;;
15667;SDS011;7934;48.710;9.024;2023-03-20T02:19:28;0.00;;;0.00;;
15667;SDS011;7934;48.710;9.024;2023-03-20T02:22:12;0.00;;;0.00;;
15667;SDS011;7934;48.710;9.024;2023-03-20T02:24:50;0.80;;;0.40;;
15667;SDS011;7934;48.710;9.024;2023-03-20T02:27:22;0.10;;;0.10;;
15667;SDS011;7934;48.710;9.024;2023-03-20T02:29:56;0.00;;;0.00;;
15667;SDS011;7934;48.710;9.024;2023-03-20T02:35:21;0.10;;;0.10;;
15667;SDS011;7934;48.710;9.024;2023-03-20T02:38:01;0.68;;;0.22;;
15667;SDS011;7934;48.710;9.024;2023-03-20T02:40:32;0.03;;;0.03;;
15667;SDS011;7934;48.710;9.024;2023-03-20T02:43:03;0.10;;;0.10;;
15667;SDS011;7934;48.710;9.024;2023-03-20T02:45:38;0.08;;;0.08;;
15667;SDS011;7934;48.710;9.024;2023-03-20T02:48:10;0.00;;;0.00;;
15667;SDS011;7934;48.710;9.024;2023-03-20T02:50:41;0.00;;;0.00;;
15667;SDS011;7934;48.710;9.024;2023-03-20T02:53:15;0.20;;;0.10;;
15667;SDS011;7934;48.710;9.024;2023-03-20T02:55:45;0.00;;;0.00;;
15667;SDS011;7934;48.710;9.024;2023-03-20T02:58:14;0.00;;;0.00;;
15667;SDS011;7934;48.710;9.024;2023-03-20T03:00:44;0.00;;;0.00;;
15667;SDS011;7934;48.710;9.024;2023-03-20T03:03:15;0.10;;;0.10;;
15667;SDS011;7934;48.710;9.024;2023-03-20T03:05:44;0.00;;;0.00;;
15667;SDS011;7934;48.710;9.024;2023-03-20T03:08:15;0.00;;;0.00;;
15667;SDS011;7934;48.710;9.024;2023-03-20T03:10:43;0.10;;;0.10;;
15667;SDS011;7934;48.710;9.024;2023-03-20T03:13:12;0.00;;;0.00;;
15667;SDS011;7934;48.710;9.024;2023-03-20T03:15:41;0.00;;;0.00;;
15667;SDS011;7934;48.710;9.024;2023-03-20T03:18:10;0.00;;;0.00;;
15667;SDS011;7934;48.710;9.024;2023-03-20T03:20:39;0.00;;;0.00;;
15667;SDS011;7934;48.710;9.024;2023-03-20T03:23:06;0.00;;;0.00;;
15667;SDS011;7934;48.710;9.024;2023-03-20T03:25:36;0.10;;;0.10;;
15667;SDS011;7934;48.710;9.024;2023-03-20T03:28:04;0.10;;;0.10;;
15667;SDS011;7934;48.710;9.024;2023-03-20T03:30:35;0.00;;;0.00;;
15667;SDS011;7934;48.710;9.024;2023-03-20T03:33:08;0.00;;;0.00;;
15667;SDS011;7934;48.710;9.024;2023-03-20T03:35:39;0.00;;;0.00;;
15667;SDS011;7934;48.710;9.024;2023-03-20T03:38:10;0.00;;;0.00;;
15667;SDS011;7934;48.710;9.024;2023-03-20T03:40:42;0.00;;;0.00;;
15667;SDS011;7934;48.710;9.024;2023-03-20T03:43:11;0.10;;;0.10;;
15667;SDS011;7934;48.710;9.024;2023-03-20T03:45:42;0.00;;;0.00;;
15667;SDS011;7934;48.710;9.024;2023-03-20T03:48:11;0.00;;;0.00;;
15667;SDS011;7934;48.710;9.024;2023-03-20T03:50:41;0.00;;;0.00;;
15667;SDS011;7934;48.710;9.024;2023-03-20T03:53:12;0.10;;;0.00;;
15667;SDS011;7934;48.710;9.024;2023-03-20T03:55:42;0.00;;;0.00;;
15667;SDS011;7934;48.710;9.024;2023-03-20T03:58:12;0.00;;;0.00;;
15667;SDS011;7934;48.710;9.024;2023-03-20T04:00:41;0.00;;;0.00;;
15667;SDS011;7934;48.710;9.024;2023-03-20T04:03:09;0.00;;;0.00;;
15667;SDS011;7934;48.710;9.024;2023-03-20T04:05:39;0.00;;;0.00;;
15667;SDS011;7934;48.710;9.024;2023-03-20T04:08:07;0.30;;;0.30;;
15667;SDS011;7934;48.710;9.024;2023-03-20T04:10:34;2.20;;;0.20;;
15667;SDS011;7934;48.710;9.024;2023-03-20T04:13:03;0.00;;;0.00;;
15667;SDS011;7934;48.710;9.024;2023-03-20T04:15:30;0.10;;;0.10;;
15667;SDS011;7934;48.710;9.024;2023-03-20T04:17:57;0.00;;;0.00;;
15667;SDS011;7934;48.710;9.024;2023-03-20T04:20:24;0.10;;;0.10;;
15667;SDS011;7934;48.710;9.024;2023-03-20T04:22:51;0.00;;;0.00;;
15667;SDS011;7934;48.710;9.024;2023-03-20T04:25:20;0.05;;;0.05;;
15667;SDS011;7934;48.710;9.024;2023-03-20T04:27:47;0.05;;;0.05;;
15667;SDS011;7934;48.710;9.024;2023-03-20T04:30:17;0.00;;;0.00;;
15667;SDS011;7934;48.710;9.024;2023-03-20T04:32:44;0.00;;;0.00;;
15667;SDS011;7934;48.710;9.024;2023-03-20T04:35:11;0.35;;;0.10;;
15667;SDS011;7934;48.710;9.024;2023-03-20T04:37:38;0.20;;;0.20;;
15667;SDS011;7934;48.710;9.024;2023-03-20T04:40:06;0.00;;;0.00;;
15667;SDS011;7934;48.710;9.024;2023-03-20T04:42:33;0.10;;;0.10;;
15667;SDS011;7934;48.710;9.024;2023-03-20T04:45:00;0.00;;;0.00;;
15667;SDS011;7934;48.710;9.024;2023-03-20T04:47:29;0.00;;;0.00;;
15667;SDS011;7934;48.710;9.024;2023-03-20T04:49:56;0.00;;;0.00;;
15667;SDS011;7934;48.710;9.024;2023-03-20T04:52:24;0.10;;;0.10;;
15667;SDS011;7934;48.710;9.024;2023-03-20T04:54:51;0.00;;;0.00;;
15667;SDS011;7934;48.710;9.024;2023-03-20T04:57:18;0.10;;;0.10;;
15667;SDS011;7934;48.710;9.024;2023-03-20T04:59:45;0.10;;;0.10;;
15667;SDS011;7934;48.710;9.024;2023-03-20T05:02:12;0.03;;;0.03;;
15667;SDS011;7934;48.710;9.024;2023-03-20T05:04:43;0.00;;;0.00;;
15667;SDS011;7934;48.710;9.024;2023-03-20T05:07:10;0.00;;;0.00;;
15667;SDS011;7934;48.710;9.024;2023-03-20T05:09:37;0.00;;;0.00;;
15667;SDS011;7934;48.710;9.024;2023-03-20T05:12:05;0.00;;;0.00;;
15667;SDS011;7934;48.710;9.024;2023-03-20T05:14:33;1.60;;;0.40;;
15667;SDS011;7934;48.710;9.024;2023-03-20T05:17:00;0.40;;;0.20;;
15667;SDS011;7934;48.710;9.024;2023-03-20T05:19:27;0.00;;;0.00;;
15667;SDS011;7934;48.710;9.024;2023-03-20T05:21:56;0.13;;;0.13;;
15667;SDS011;7934;48.710;9.024;2023-03-20T05:24:23;0.00;;;0.00;;
15667;SDS011;7934;48.710;9.024;2023-03-20T05:26:51;0.00;;;0.00;;
15667;SDS011;7934;48.710;9.024;2023-03-20T05:29:18;0.20;;;0.20;;
15667;SDS011;7934;48.710;9.024;2023-03-20T05:31:45;0.10;;;0.10;;
15667;SDS011;7934;48.710;9.024;2023-03-20T05:34:13;0.10;;;0.10;;
15667;SDS011;7934;48.710;9.024;2023-03-20T05:36:40;0.10;;;0.10;;
15667;SDS011;7934;48.710;9.024;2023-03-20T05:39:08;1.00;;;0.57;;
15667;SDS011;7934;48.710;9.024;2023-03-20T05:41:35;0.40;;;0.40;;
15667;SDS011;7934;48.710;9.024;2023-03-20T05:44:03;0.05;;;0.05;;
15667;SDS011;7934;48.710;9.024;2023-03-20T05:46:30;0.25;;;0.25;;
15667;SDS011;7934;48.710;9.024;2023-03-20T05:48:57;0.38;;;0.38;;
15667;SDS011;7934;48.710;9.024;2023-03-20T05:51:25;0.38;;;0.38;;
15667;SDS011;7934;48.710;9.024;2023-03-20T05:53:52;0.28;;;0.28;;
15667;SDS011;7934;48.710;9.024;2023-03-20T05:56:20;0.20;;;0.20;;
15667;SDS011;7934;48.710;9.024;2023-03-20T05:58:47;1.00;;;0.50;;
15667;SDS011;7934;48.710;9.024;2023-03-20T06:01:16;0.30;;;0.30;;
15667;SDS011;7934;48.710;9.024;2023-03-20T06:03:45;0.60;;;0.60;;
15667;SDS011;7934;48.710;9.024;2023-03-20T06:06:12;0.28;;;0.28;;
15667;SDS011;7934;48.710;9.024;2023-03-20T06:08:39;0.28;;;0.28;;
15667;SDS011;7934;48.710;9.024;2023-03-20T06:11:07;0.10;;;0.10;;
15667;SDS011;7934;48.710;9.024;2023-03-20T06:13:35;0.30;;;0.30;;
15667;SDS011;7934;48.710;9.024;2023-03-20T06:16:03;0.10;;;0.10;;
15667;SDS011;7934;48.710;9.024;2023-03-20T06:18:30;0.15;;;0.15;;
15667;SDS011;7934;48.710;9.024;2023-03-20T06:20:58;0.30;;;0.30;;
15667;SDS011;7934;48.710;9.024;2023-03-20T06:23:26;0.30;;;0.30;;
15667;SDS011;7934;48.710;9.024;2023-03-20T06:25:53;0.43;;;0.43;;
15667;SDS011;7934;48.710;9.024;2023-03-20T06:28:20;0.80;;;0.20;;
15667;SDS011;7934;48.710;9.024;2023-03-20T06:30:51;0.10;;;0.10;;
15667;SDS011;7934;48.710;9.024;2023-03-20T06:33:18;0.00;;;0.00;;
15667;SDS011;7934;48.710;9.024;2023-03-20T06:35:45;0.20;;;0.20;;
15667;SDS011;7934;48.710;9.024;2023-03-20T06:38:13;0.00;;;0.00;;
15667;SDS011;7934;48.710;9.024;2023-03-20T06:40:40;0.40;;;0.10;;
15667;SDS011;7934;48.710;9.024;2023-03-20T06:43:09;0.20;;;0.20;;
15667;SDS011;7934;48.710;9.024;2023-03-20T06:45:36;0.28;;;0.28;;
15667;SDS011;7934;48.710;9.024;2023-03-20T06:48:06;0.00;;;0.00;;
15667;SDS011;7934;48.710;9.024;2023-03-20T06:50:33;0.00;;;0.00;;
15667;SDS011;7934;48.710;9.024;2023-03-20T06:53:01;0.15;;;0.15;;
15667;SDS011;7934;48.710;9.024;2023-03-20T06:55:28;0.00;;;0.00;;
15667;SDS011;7934;48.710;9.024;2023-03-20T06:57:55;2.10;;;0.70;;
15667;SDS011;7934;48.710;9.024;2023-03-20T07:00:23;0.20;;;0.20;;
15667;SDS011;7934;48.710;9.024;2023-03-20T07:02:50;0.20;;;0.20;;
15667;SDS011;7934;48.710;9.024;2023-03-20T07:05:19;0.00;;;0.00;;
15667;SDS011;7934;48.710;9.024;2023-03-20T07:07:47;0.38;;;0.38;;
15667;SDS011;7934;48.710;9.024;2023-03-20T07:10:14;0.10;;;0.10;;
15667;SDS011;7934;48.710;9.024;2023-03-20T07:12:41;0.68;;;0.68;;
15667;SDS011;7934;48.710;9.024;2023-03-20T07:15:09;0.15;;;0.15;;
15667;SDS011;7934;48.710;9.024;2023-03-20T07:17:36;0.20;;;0.20;;
15667;SDS011;7934;48.710;9.024;2023-03-20T07:20:03;0.00;;;0.00;;
15667;SDS011;7934;48.710;9.024;2023-03-20T07:22:33;0.00;;;0.00;;
15667;SDS011;7934;48.710;9.024;2023-03-20T07:25:01;0.10;;;0.10;;
15667;SDS011;7934;48.710;9.024;2023-03-20T07:27:28;0.00;;;0.00;;
15667;SDS011;7934;48.710;9.024;2023-03-20T07:29:56;0.10;;;0.10;;
15667;SDS011;7934;48.710;9.024;2023-03-20T07:32:23;0.07;;;0.07;;
15667;SDS011;7934;48.710;9.024;2023-03-20T07:34:50;0.30;;;0.30;;
15667;SDS011;7934;48.710;9.024;2023-03-20T07:37:17;0.10;;;0.10;;
15667;SDS011;7934;48.710;9.024;2023-03-20T07:39:46;1.10;;;0.20;;
15667;SDS011;7934;48.710;9.024;2023-03-20T07:42:13;0.08;;;0.08;;
15667;SDS011;7934;48.710;9.024;2023-03-20T07:44:40;0.00;;;0.00;;
15667;SDS011;7934;48.710;9.024;2023-03-20T07:47:07;3.80;;;1.70;;
15667;SDS011;7934;48.710;9.024;2023-03-20T07:49:35;5.55;;;1.90;;
15667;SDS011;7934;48.710;9.024;2023-03-20T07:52:02;11.18;;;2.20;;
15667;SDS011;7934;48.710;9.024;2023-03-20T07:54:29;3.97;;;1.70;;
15667;SDS011;7934;48.710;9.024;2023-03-20T07:56:58;4.40;;;1.50;;
15667;SDS011;7934;48.710;9.024;2023-03-20T07:59:25;1.90;;;1.80;;
15667;SDS011;7934;48.710;9.024;2023-03-20T08:01:52;2.42;;;1.58;;
15667;SDS011;7934;48.710;9.024;2023-03-20T08:04:19;1.98;;;1.63;;
15667;SDS011;7934;48.710;9.024;2023-03-20T08:06:47;3.57;;;2.00;;
15667;SDS011;7934;48.710;9.024;2023-03-20T08:09:14;1.63;;;1.55;;
15667;SDS011;7934;48.710;9.024;2023-03-20T08:11:41;4.13;;;1.80;;
15667;SDS011;7934;48.710;9.024;2023-03-20T08:14:10;3.40;;;2.10;;
15667;SDS011;7934;48.710;9.024;2023-03-20T08:16:37;3.00;;;1.88;;
15667;SDS011;7934;48.710;9.024;2023-03-20T08:19:05;2.00;;;1.90;;
15667;SDS011;7934;48.710;9.024;2023-03-20T08:21:32;1.53;;;1.50;;
15667;SDS011;7934;48.710;9.024;2023-03-20T08:24:00;2.30;;;1.80;;
15667;SDS011;7934;48.710;9.024;2023-03-20T08:26:27;4.53;;;1.70;;
15667;SDS011;7934;48.710;9.024;2023-03-20T08:28:55;4.80;;;1.88;;
15667;SDS011;7934;48.710;9.024;2023-03-20T08:31:24;6.50;;;2.00;;
15667;SDS011;7934;48.710;9.024;2023-03-20T08:33:51;7.63;;;2.28;;
15667;SDS011;7934;48.710;9.024;2023-03-20T08:36:18;6.13;;;2.03;;
15667;SDS011;7934;48.710;9.024;2023-03-20T08:38:46;4.78;;;4.30;;
15667;SDS011;7934;48.710;9.024;2023-03-20T08:41:13;4.75;;;2.08;;
15667;SDS011;7934;48.710;9.024;2023-03-20T08:43:40;2.58;;;1.90;;
15667;SDS011;7934;48.710;9.024;2023-03-20T08:46:08;3.88;;;1.83;;
15667;SDS011;7934;48.710;9.024;2023-03-20T08:48:36;1.52;;;1.52;;
15667;SDS011;7934;48.710;9.024;2023-03-20T08:51:04;3.47;;;2.15;;
15667;SDS011;7934;48.710;9.024;2023-03-20T08:53:31;2.58;;;2.17;;
15667;SDS011;7934;48.710;9.024;2023-03-20T08:55:59;2.63;;;2.10;;
15667;SDS011;7934;48.710;9.024;2023-03-20T08:58:26;2.42;;;1.90;;
15667;SDS011;7934;48.710;9.024;2023-03-20T09:00:54;5.72;;;2.30;;
15667;SDS011;7934;48.710;9.024;2023-03-20T09:03:21;3.50;;;2.17;;
15667;SDS011;7934;48.710;9.024;2023-03-20T09:05:50;3.80;;;2.20;;
15667;SDS011;7934;48.710;9.024;2023-03-20T09:08:18;2.10;;;2.00;;
15667;SDS011;7934;48.710;9.024;2023-03-20T09:10:45;3.55;;;2.20;;
15667;SDS011;7934;48.710;9.024;2023-03-20T09:13:13;2.60;;;2.08;;
15667;SDS011;7934;48.710;9.024;2023-03-20T09:15:40;2.15;;;2.03;;
15667;SDS011;7934;48.710;9.024;2023-03-20T09:18:07;3.72;;;2.58;;
15667;SDS011;7934;48.710;9.024;2023-03-20T09:20:35;2.15;;;1.95;;
15667;SDS011;7934;48.710;9.024;2023-03-20T09:23:03;2.13;;;2.03;;
15667;SDS011;7934;48.710;9.024;2023-03-20T09:25:31;2.25;;;1.98;;
15667;SDS011;7934;48.710;9.024;2023-03-20T09:27:58;2.58;;;2.40;;
15667;SDS011;7934;48.710;9.024;2023-03-20T09:30:25;2.40;;;2.30;;
15667;SDS011;7934;48.710;9.024;2023-03-20T09:32:52;2.30;;;2.20;;
15667;SDS011;7934;48.710;9.024;2023-03-20T09:35:19;6.63;;;2.65;;
15667;SDS011;7934;48.710;9.024;2023-03-20T09:37:47;2.58;;;2.38;;
15667;SDS011;7934;48.710;9.024;2023-03-20T09:40:21;2.55;;;2.30;;
15667;SDS011;7934;48.710;9.024;2023-03-20T09:42:52;4.03;;;2.38;;
15667;SDS011;7934;48.710;9.024;2023-03-20T09:45:24;5.65;;;2.92;;
15667;SDS011;7934;48.710;9.024;2023-03-20T09:47:56;2.60;;;2.30;;
15667;SDS011;7934;48.710;9.024;2023-03-20T09:50:25;5.20;;;2.63;;
15667;SDS011;7934;48.710;9.024;2023-03-20T09:52:56;2.67;;;2.50;;
15667;SDS011;7934;48.710;9.024;2023-03-20T09:55:26;4.50;;;2.42;;
15667;SDS011;7934;48.710;9.024;2023-03-20T09:57:58;2.47;;;2.20;;
15667;SDS011;7934;48.710;9.024;2023-03-20T10:00:28;2.13;;;2.03;;
15667;SDS011;7934;48.710;9.024;2023-03-20T10:02:57;2.25;;;2.05;;
15667;SDS011;7934;48.710;9.024;2023-03-20T10:05:25;1.95;;;1.95;;
15667;SDS011;7934;48.710;9.024;2023-03-20T10:07:52;2.33;;;2.22;;
15667;SDS011;7934;48.710;9.024;2023-03-20T10:10:20;2.10;;;1.90;;
15667;SDS011;7934;48.710;9.024;2023-03-20T10:12:54;2.20;;;1.92;;
15667;SDS011;7934;48.710;9.024;2023-03-20T10:15:27;2.17;;;1.90;;
15667;SDS011;7934;48.710;9.024;2023-03-20T10:18:04;2.10;;;1.98;;
15667;SDS011;7934;48.710;9.024;2023-03-20T10:20:38;2.00;;;1.90;;
15667;SDS011;7934;48.710;9.024;2023-03-20T10:23:12;2.10;;;1.90;;
15667;SDS011;7934;48.710;9.024;2023-03-20T10:25:44;2.25;;;2.05;;
15667;SDS011;7934;48.710;9.024;2023-03-20T10:28:15;2.10;;;2.00;;
15667;SDS011;7934;48.710;9.024;2023-03-20T10:30:47;1.95;;;1.70;;
15667;SDS011;7934;48.710;9.024;2023-03-20T10:33:21;3.92;;;1.77;;
15667;SDS011;7934;48.710;9.024;2023-03-20T10:35:56;1.80;;;1.80;;
15667;SDS011;7934;48.710;9.024;2023-03-20T10:38:29;2.20;;;2.10;;
15667;SDS011;7934;48.710;9.024;2023-03-20T10:41:01;2.10;;;2.00;;
15667;SDS011;7934;48.710;9.024;2023-03-20T10:43:31;2.15;;;2.05;;
15667;SDS011;7934;48.710;9.024;2023-03-20T10:46:00;1.97;;;1.87;;
15667;SDS011;7934;48.710;9.024;2023-03-20T10:48:29;3.60;;;2.20;;
15667;SDS011;7934;48.710;9.024;2023-03-20T10:50:58;2.40;;;2.20;;
15667;SDS011;7934;48.710;9.024;2023-03-20T10:53:28;1.80;;;1.70;;
15667;SDS011;7934;48.710;9.024;2023-03-20T10:55:56;1.77;;;1.70;;
15667;SDS011;7934;48.710;9.024;2023-03-20T10:58:29;1.77;;;1.67;;
15667;SDS011;7934;48.710;9.024;2023-03-20T11:01:16;4.95;;;2.50;;
15667;SDS011;7934;48.710;9.024;2023-03-20T11:03:44;1.65;;;1.55;;
15667;SDS011;7934;48.710;9.024;2023-03-20T11:08:57;2.30;;;1.55;;
15667;SDS011;7934;48.710;9.024;2023-03-20T11:11:36;1.90;;;1.50;;
15667;SDS011;7934;48.710;9.024;2023-03-20T11:14:08;4.03;;;1.90;;
15667;SDS011;7934;48.710;9.024;2023-03-20T11:16:37;2.70;;;1.88;;
15667;SDS011;7934;48.710;9.024;2023-03-20T11:19:05;1.80;;;1.70;;
15667;SDS011;7934;48.710;9.024;2023-03-20T11:21:34;2.45;;;1.90;;
15667;SDS011;7934;48.710;9.024;2023-03-20T11:24:21;1.70;;;1.60;;
15667;SDS011;7934;48.710;9.024;2023-03-20T11:26:50;1.50;;;1.40;;
15667;SDS011;7934;48.710;9.024;2023-03-20T11:29:21;2.60;;;1.70;;
15667;SDS011;7934;48.710;9.024;2023-03-20T11:34:34;3.28;;;1.70;;
15667;SDS011;7934;48.710;9.024;2023-03-20T11:37:05;2.00;;;1.80;;
15667;SDS011;7934;48.710;9.024;2023-03-20T11:39:32;1.90;;;1.80;;
15667;SDS011;7934;48.710;9.024;2023-03-20T11:42:01;1.92;;;1.83;;
15667;SDS011;7934;48.710;9.024;2023-03-20T11:44:35;1.45;;;1.45;;
15667;SDS011;7934;48.710;9.024;2023-03-20T11:47:03;1.80;;;1.70;;
15667;SDS011;7934;48.710;9.024;2023-03-20T11:49:31;1.80;;;1.70;;
15667;SDS011;7934;48.710;9.024;2023-03-20T11:52:01;1.73;;;1.67;;
15667;SDS011;7934;48.710;9.024;2023-03-20T11:54:28;2.20;;;1.50;;
15667;SDS011;7934;48.710;9.024;2023-03-20T11:56:57;1.90;;;1.80;;
15667;SDS011;7934;48.710;9.024;2023-03-20T11:59:28;1.67;;;1.60;;
15667;SDS011;7934;48.710;9.024;2023-03-20T12:01:58;1.70;;;1.70;;
15667;SDS011;7934;48.710;9.024;2023-03-20T12:04:26;1.88;;;1.77;;
15667;SDS011;7934;48.710;9.024;2023-03-20T12:07:10;1.95;;;1.88;;
15667;SDS011;7934;48.710;9.024;2023-03-20T12:09:40;2.10;;;2.00;;
15667;SDS011;7934;48.710;9.024;2023-03-20T12:12:11;3.17;;;2.00;;
15667;SDS011;7934;48.710;9.024;2023-03-20T12:17:37;2.00;;;1.80;;
15667;SDS011;7934;48.710;9.024;2023-03-20T12:20:19;1.70;;;1.60;;
15667;SDS011;7934;48.710;9.024;2023-03-20T12:22:52;2.30;;;1.80;;
15667;SDS011;7934;48.710;9.024;2023-03-20T12:25:35;2.20;;;2.00;;
15667;SDS011;7934;48.710;9.024;2023-03-20T12:34:39;2.90;;;2.70;;
15667;SDS011;7934;48.710;9.024;2023-03-20T12:37:26;2.40;;;2.30;;
15667;SDS011;7934;48.710;9.024;2023-03-20T12:49:34;2.70;;;2.50;;
15667;SDS011;7934;48.710;9.024;2023-03-20T12:52:35;2.15;;;1.95;;
15667;SDS011;7934;48.710;9.024;2023-03-20T12:58:26;2.22;;;2.03;;
15667;SDS011;7934;48.710;9.024;2023-03-20T13:01:18;2.28;;;2.08;;
15667;SDS011;7934;48.710;9.024;2023-03-20T13:19:08;1.92;;;1.80;;
15667;SDS011;7934;48.710;9.024;2023-03-20T13:22:04;1.85;;;1.75;;
15667;SDS011;7934;48.710;9.024;2023-03-20T13:27:51;2.10;;;2.00;;
15667;SDS011;7934;48.710;9.024;2023-03-20T13:37:04;1.50;;;1.40;;
15667;SDS011;7934;48.710;9.024;2023-03-20T13:39:51;3.30;;;1.52;;
15667;SDS011;7934;48.710;9.024;2023-03-20T13:42:52;4.78;;;1.80;;
15667;SDS011;7934;48.710;9.024;2023-03-20T13:51:23;2.35;;;1.60;;
15667;SDS011;7934;48.710;9.024;2023-03-20T14:00:10;2.88;;;1.58;;
15667;SDS011;7934;48.710;9.024;2023-03-20T14:02:53;1.42;;;1.33;;
15667;SDS011;7934;48.710;9.024;2023-03-20T14:05:33;1.55;;;1.45;;
15667;SDS011;7934;48.710;9.024;2023-03-20T14:16:16;2.13;;;1.57;;
15667;SDS011;7934;48.710;9.024;2023-03-20T14:24:52;1.33;;;1.30;;
15667;SDS011;7934;48.710;9.024;2023-03-20T14:36:43;1.20;;;1.20;;
15667;SDS011;7934;48.710;9.024;2023-03-20T14:48:22;1.40;;;1.40;;
15667;SDS011;7934;48.710;9.024;2023-03-20T14:50:57;1.40;;;1.30;;
15667;SDS011;7934;48.710;9.024;2023-03-20T14:53:53;1.20;;;1.20;;
15667;SDS011;7934;48.710;9.024;2023-03-20T14:56:30;1.42;;;1.33;;
15667;SDS011;7934;48.710;9.024;2023-03-20T15:05:01;2.90;;;1.60;;
15667;SDS011;7934;48.710;9.024;2023-03-20T15:10:26;2.10;;;1.60;;
15667;SDS011;7934;48.710;9.024;2023-03-20T15:13:00;1.23;;;1.23;;
15667;SDS011;7934;48.710;9.024;2023-03-20T15:25:15;1.73;;;1.63;;
15667;SDS011;7934;48.710;9.024;2023-03-20T15:31:22;1.45;;;1.45;;
15667;SDS011;7934;48.710;9.024;2023-03-20T15:33:50;1.90;;;1.80;;
15667;SDS011;7934;48.710;9.024;2023-03-20T15:42:56;1.90;;;1.75;;
15667;SDS011;7934;48.710;9.024;2023-03-20T15:57:24;3.00;;;2.08;;
15667;SDS011;7934;48.710;9.024;2023-03-20T16:06:52;2.70;;;1.92;;
15667;SDS011;7934;48.710;9.024;2023-03-20T16:09:41;2.10;;;1.90;;
15667;SDS011;7934;48.710;9.024;2023-03-20T16:12:21;2.28;;;2.00;;
15667;SDS011;7934;48.710;9.024;2023-03-20T16:26:54;1.92;;;1.90;;
15667;SDS011;7934;48.710;9.024;2023-03-20T16:32:35;1.80;;;1.70;;
15667;SDS011;7934;48.710;9.024;2023-03-20T17:08:30;4.40;;;2.92;;
15667;SDS011;7934;48.710;9.024;2023-03-20T17:11:30;2.38;;;2.17;;
15667;SDS011;7934;48.710;9.024;2023-03-20T17:14:16;1.83;;;1.73;;
15667;SDS011;7934;48.710;9.024;2023-03-20T17:19:47;2.10;;;2.00;;
15667;SDS011;7934;48.710;9.024;2023-03-20T17:22:29;2.10;;;2.00;;
15667;SDS011;7934;48.710;9.024;2023-03-20T17:28:23;2.28;;;2.17;;
15667;SDS011;7934;48.710;9.024;2023-03-20T17:33:53;2.38;;;2.17;;
15667;SDS011;7934;48.710;9.024;2023-03-20T17:36:22;1.80;;;1.70;;
15667;SDS011;7934;48.710;9.024;2023-03-20T17:39:06;1.77;;;1.67;;
15667;SDS011;7934;48.710;9.024;2023-03-20T17:41:42;2.00;;;1.80;;
15667;SDS011;7934;48.710;9.024;2023-03-20T17:44:33;2.15;;;1.92;;
15667;SDS011;7934;48.710;9.024;2023-03-20T17:47:00;3.20;;;2.33;;
15667;SDS011;7934;48.710;9.024;2023-03-20T17:52:36;2.25;;;2.05;;
15667;SDS011;7934;48.710;9.024;2023-03-20T17:55:17;2.60;;;2.40;;
15667;SDS011;7934;48.710;9.024;2023-03-20T17:58:20;2.33;;;2.08;;
15667;SDS011;7934;48.710;9.024;2023-03-20T18:00:53;2.80;;;2.60;;
15667;SDS011;7934;48.710;9.024;2023-03-20T18:03:40;2.70;;;2.50;;
15667;SDS011;7934;48.710;9.024;2023-03-20T18:09:52;5.27;;;3.13;;
15667;SDS011;7934;48.710;9.024;2023-03-20T18:12:45;2.57;;;2.37;;
15667;SDS011;7934;48.710;9.024;2023-03-20T18:21:41;2.70;;;2.47;;
15667;SDS011;7934;48.710;9.024;2023-03-20T18:24:37;2.42;;;2.33;;
15667;SDS011;7934;48.710;9.024;2023-03-20T18:30:34;2.50;;;2.30;;
15667;SDS011;7934;48.710;9.024;2023-03-20T18:45:13;2.55;;;2.35;;
15667;SDS011;7934;48.710;9.024;2023-03-20T18:48:05;2.95;;;2.75;;
15667;SDS011;7934;48.710;9.024;2023-03-20T18:51:03;3.03;;;2.70;;
15667;SDS011;7934;48.710;9.024;2023-03-20T18:53:35;3.00;;;2.70;;
15667;SDS011;7934;48.710;9.024;2023-03-20T18:59:11;3.30;;;3.00;;
15667;SDS011;7934;48.710;9.024;2023-03-20T19:04:47;2.60;;;2.50;;
15667;SDS011;7934;48.710;9.024;2023-03-20T19:07:38;2.72;;;2.53;;
15667;SDS011;7934;48.710;9.024;2023-03-20T19:10:19;2.80;;;2.60;;
15667;SDS011;7934;48.710;9.024;2023-03-20T19:12:48;3.05;;;2.83;;
15667;SDS011;7934;48.710;9.024;2023-03-20T19:17:39;3.80;;;2.50;;
15667;SDS011;7934;48.710;9.024;2023-03-20T19:18:30;4.00;;;2.90;;
15667;SDS011;7934;48.710;9.024;2023-03-20T19:21:16;4.15;;;3.10;;
15667;SDS011;7934;48.710;9.024;2023-03-20T19:27:24;3.00;;;2.60;;
15667;SDS011;7934;48.710;9.024;2023-03-20T20:10:47;2.90;;;2.70;;